sensor_id;sensor_type;location;lat;lon;timestamp;P1;durP1;ratioP1;P2;durP2;ratioP2
5491;SDS011;2768;53.540;10.224;2022-12-15T00:05:42;17.03;;;13.23;;
5491;SDS011;2768;53.540;10.224;2022-12-15T00:11:54;16.27;;;12.83;;
5491;SDS011;2768;53.540;10.224;2022-12-15T00:18:05;14.23;;;11.50;;
5491;SDS011;2768;53.540;10.224;2022-12-15T00:24:18;15.67;;;12.43;;
5491;SDS011;2768;53.540;10.224;2022-12-15T00:30:29;13.97;;;11.20;;
5491;SDS011;2768;53.540;10.224;2022-12-15T00:36:40;15.80;;;11.47;;
5491;SDS011;2768;53.540;10.224;2022-12-15T00:42:52;14.33;;;11.67;;
5491;SDS011;2768;53.540;10.224;2022-12-15T00:48:46;16.23;;;12.77;;
5491;SDS011;2768;53.540;10.224;2022-12-15T00:54:39;13.93;;;11.10;;
5491;SDS011;2768;53.540;10.224;2022-12-15T01:00:52;12.80;;;9.70;;
5491;SDS011;2768;53.540;10.224;2022-12-15T01:07:03;14.33;;;10.80;;
5491;SDS011;2768;53.540;10.224;2022-12-15T01:13:15;14.17;;;10.33;;
5491;SDS011;2768;53.540;10.224;2022-12-15T01:19:27;12.40;;;9.67;;
5491;SDS011;2768;53.540;10.224;2022-12-15T01:25:39;15.43;;;11.93;;
5491;SDS011;2768;53.540;10.224;2022-12-15T01:31:33;16.10;;;11.27;;
5491;SDS011;2768;53.540;10.224;2022-12-15T01:37:28;15.80;;;12.40;;
5491;SDS011;2768;53.540;10.224;2022-12-15T01:43:22;14.33;;;11.60;;
5491;SDS011;2768;53.540;10.224;2022-12-15T01:49:19;16.07;;;11.73;;
5491;SDS011;2768;53.540;10.224;2022-12-15T01:55:16;14.60;;;10.80;;
5491;SDS011;2768;53.540;10.224;2022-12-15T02:01:11;14.30;;;10.20;;
5491;SDS011;2768;53.540;10.224;2022-12-15T02:07:04;13.13;;;10.50;;
5491;SDS011;2768;53.540;10.224;2022-12-15T02:13:00;12.10;;;9.40;;
5491;SDS011;2768;53.540;10.224;2022-12-15T02:19:04;14.83;;;11.90;;
5491;SDS011;2768;53.540;10.224;2022-12-15T02:25:17;13.23;;;10.40;;
5491;SDS011;2768;53.540;10.224;2022-12-15T02:31:25;14.03;;;10.53;;
5491;SDS011;2768;53.540;10.224;2022-12-15T02:37:40;15.50;;;11.10;;
5491;SDS011;2768;53.540;10.224;2022-12-15T02:43:35;13.30;;;10.63;;
5491;SDS011;2768;53.540;10.224;2022-12-15T02:49:33;14.73;;;10.40;;
5491;SDS011;2768;53.540;10.224;2022-12-15T02:55:42;10.87;;;9.60;;
5491;SDS011;2768;53.540;10.224;2022-12-15T03:01:43;14.17;;;10.17;;
5491;SDS011;2768;53.540;10.224;2022-12-15T03:07:45;17.00;;;11.47;;
5491;SDS011;2768;53.540;10.224;2022-12-15T03:13:41;14.80;;;10.50;;
5491;SDS011;2768;53.540;10.224;2022-12-15T03:19:35;12.60;;;9.57;;
5491;SDS011;2768;53.540;10.224;2022-12-15T03:25:30;12.40;;;10.43;;
5491;SDS011;2768;53.540;10.224;2022-12-15T03:31:23;14.10;;;10.43;;
5491;SDS011;2768;53.540;10.224;2022-12-15T03:37:16;16.23;;;11.63;;
5491;SDS011;2768;53.540;10.224;2022-12-15T03:43:11;13.60;;;10.60;;
5491;SDS011;2768;53.540;10.224;2022-12-15T03:49:05;11.53;;;9.40;;
5491;SDS011;2768;53.540;10.224;2022-12-15T03:54:58;12.30;;;8.80;;
5491;SDS011;2768;53.540;10.224;2022-12-15T04:00:53;11.00;;;9.30;;
5491;SDS011;2768;53.540;10.224;2022-12-15T04:06:47;12.43;;;9.50;;
5491;SDS011;2768;53.540;10.224;2022-12-15T04:12:41;11.27;;;9.37;;
5491;SDS011;2768;53.540;10.224;2022-12-15T04:18:36;13.30;;;10.00;;
5491;SDS011;2768;53.540;10.224;2022-12-15T04:24:29;13.67;;;8.97;;
5491;SDS011;2768;53.540;10.224;2022-12-15T04:30:41;13.47;;;10.40;;
5491;SDS011;2768;53.540;10.224;2022-12-15T04:36:57;13.20;;;9.07;;
5491;SDS011;2768;53.540;10.224;2022-12-15T04:43:08;12.37;;;9.30;;
5491;SDS011;2768;53.540;10.224;2022-12-15T04:49:20;12.07;;;9.20;;
5491;SDS011;2768;53.540;10.224;2022-12-15T04:55:34;13.30;;;10.20;;
5491;SDS011;2768;53.540;10.224;2022-12-15T05:01:45;13.00;;;10.10;;
5491;SDS011;2768;53.540;10.224;2022-12-15T05:07:56;13.20;;;9.80;;
5491;SDS011;2768;53.540;10.224;2022-12-15T05:14:09;11.90;;;8.70;;
5491;SDS011;2768;53.540;10.224;2022-12-15T05:20:20;12.43;;;9.53;;
5491;SDS011;2768;53.540;10.224;2022-12-15T05:26:31;11.63;;;9.00;;
5491;SDS011;2768;53.540;10.224;2022-12-15T05:32:45;11.20;;;8.37;;
5491;SDS011;2768;53.540;10.224;2022-12-15T05:38:40;13.40;;;9.50;;
5491;SDS011;2768;53.540;10.224;2022-12-15T05:44:33;14.87;;;10.63;;
5491;SDS011;2768;53.540;10.224;2022-12-15T05:50:30;12.10;;;9.33;;
5491;SDS011;2768;53.540;10.224;2022-12-15T05:56:24;11.33;;;9.47;;
5491;SDS011;2768;53.540;10.224;2022-12-15T06:02:19;13.27;;;9.80;;
5491;SDS011;2768;53.540;10.224;2022-12-15T06:08:13;11.70;;;9.40;;
5491;SDS011;2768;53.540;10.224;2022-12-15T06:14:07;16.97;;;10.73;;
5491;SDS011;2768;53.540;10.224;2022-12-15T06:20:01;12.33;;;9.67;;
5491;SDS011;2768;53.540;10.224;2022-12-15T06:25:55;14.20;;;9.40;;
5491;SDS011;2768;53.540;10.224;2022-12-15T06:31:48;11.90;;;9.33;;
5491;SDS011;2768;53.540;10.224;2022-12-15T06:37:42;12.07;;;9.43;;
5491;SDS011;2768;53.540;10.224;2022-12-15T06:43:37;15.70;;;10.07;;
5491;SDS011;2768;53.540;10.224;2022-12-15T06:49:30;12.10;;;9.10;;
5491;SDS011;2768;53.540;10.224;2022-12-15T06:55:24;12.10;;;9.70;;
5491;SDS011;2768;53.540;10.224;2022-12-15T07:01:20;13.87;;;10.50;;
5491;SDS011;2768;53.540;10.224;2022-12-15T07:07:14;12.87;;;9.03;;
5491;SDS011;2768;53.540;10.224;2022-12-15T07:13:08;12.77;;;10.37;;
5491;SDS011;2768;53.540;10.224;2022-12-15T07:19:04;12.53;;;10.57;;
5491;SDS011;2768;53.540;10.224;2022-12-15T07:24:57;11.43;;;10.07;;
5491;SDS011;2768;53.540;10.224;2022-12-15T07:30:50;12.50;;;9.30;;
5491;SDS011;2768;53.540;10.224;2022-12-15T07:36:45;12.70;;;10.00;;
5491;SDS011;2768;53.540;10.224;2022-12-15T07:42:42;11.87;;;9.07;;
5491;SDS011;2768;53.540;10.224;2022-12-15T07:48:36;11.77;;;9.03;;
5491;SDS011;2768;53.540;10.224;2022-12-15T07:54:31;12.10;;;9.10;;
5491;SDS011;2768;53.540;10.224;2022-12-15T08:00:25;12.70;;;9.17;;
5491;SDS011;2768;53.540;10.224;2022-12-15T08:06:19;11.17;;;9.23;;
5491;SDS011;2768;53.540;10.224;2022-12-15T08:26:28;11.00;;;8.17;;
5491;SDS011;2768;53.540;10.224;2022-12-15T08:32:22;13.27;;;9.03;;
5491;SDS011;2768;53.540;10.224;2022-12-15T08:38:16;14.07;;;9.43;;
5491;SDS011;2768;53.540;10.224;2022-12-15T08:44:10;12.53;;;8.53;;
5491;SDS011;2768;53.540;10.224;2022-12-15T08:50:05;10.53;;;8.90;;
5491;SDS011;2768;53.540;10.224;2022-12-15T08:56:03;12.40;;;8.97;;
5491;SDS011;2768;53.540;10.224;2022-12-15T09:01:59;12.00;;;9.70;;
5491;SDS011;2768;53.540;10.224;2022-12-15T09:07:53;11.07;;;8.50;;
5491;SDS011;2768;53.540;10.224;2022-12-15T09:13:53;11.93;;;9.87;;
5491;SDS011;2768;53.540;10.224;2022-12-15T09:19:47;11.33;;;8.53;;
5491;SDS011;2768;53.540;10.224;2022-12-15T09:25:41;11.23;;;8.83;;
5491;SDS011;2768;53.540;10.224;2022-12-15T09:31:35;12.90;;;8.83;;
5491;SDS011;2768;53.540;10.224;2022-12-15T09:37:30;10.87;;;8.87;;
5491;SDS011;2768;53.540;10.224;2022-12-15T09:43:24;12.80;;;9.83;;
5491;SDS011;2768;53.540;10.224;2022-12-15T09:49:32;11.73;;;9.97;;
5491;SDS011;2768;53.540;10.224;2022-12-15T09:55:35;10.23;;;8.50;;
5491;SDS011;2768;53.540;10.224;2022-12-15T10:01:30;11.40;;;9.23;;
5491;SDS011;2768;53.540;10.224;2022-12-15T10:07:30;13.57;;;9.60;;
5491;SDS011;2768;53.540;10.224;2022-12-15T10:13:32;13.13;;;9.37;;
5491;SDS011;2768;53.540;10.224;2022-12-15T10:19:33;16.00;;;9.00;;
5491;SDS011;2768;53.540;10.224;2022-12-15T10:25:32;11.90;;;9.63;;
5491;SDS011;2768;53.540;10.224;2022-12-15T10:31:28;12.50;;;9.90;;
5491;SDS011;2768;53.540;10.224;2022-12-15T10:37:28;12.00;;;8.83;;
5491;SDS011;2768;53.540;10.224;2022-12-15T10:43:24;9.00;;;8.10;;
5491;SDS011;2768;53.540;10.224;2022-12-15T10:49:22;11.77;;;8.67;;
5491;SDS011;2768;53.540;10.224;2022-12-15T10:55:27;9.37;;;8.47;;
5491;SDS011;2768;53.540;10.224;2022-12-15T11:01:28;10.87;;;8.30;;
5491;SDS011;2768;53.540;10.224;2022-12-15T11:07:27;11.30;;;9.00;;
5491;SDS011;2768;53.540;10.224;2022-12-15T11:13:25;10.73;;;8.37;;
5491;SDS011;2768;53.540;10.224;2022-12-15T11:19:26;11.07;;;8.30;;
5491;SDS011;2768;53.540;10.224;2022-12-15T11:25:30;8.73;;;7.80;;
5491;SDS011;2768;53.540;10.224;2022-12-15T11:31:30;12.00;;;8.20;;
5491;SDS011;2768;53.540;10.224;2022-12-15T11:37:34;9.83;;;7.87;;
5491;SDS011;2768;53.540;10.224;2022-12-15T11:43:33;12.47;;;8.20;;
5491;SDS011;2768;53.540;10.224;2022-12-15T11:49:50;8.63;;;7.77;;
5491;SDS011;2768;53.540;10.224;2022-12-15T11:55:59;10.13;;;7.80;;
5491;SDS011;2768;53.540;10.224;2022-12-15T12:02:07;9.50;;;7.10;;
5491;SDS011;2768;53.540;10.224;2022-12-15T12:08:21;8.63;;;7.67;;
5491;SDS011;2768;53.540;10.224;2022-12-15T12:14:35;11.00;;;7.83;;
5491;SDS011;2768;53.540;10.224;2022-12-15T12:20:42;9.90;;;8.13;;
5491;SDS011;2768;53.540;10.224;2022-12-15T12:26:41;14.93;;;8.20;;
5491;SDS011;2768;53.540;10.224;2022-12-15T12:32:42;15.40;;;10.00;;
5491;SDS011;2768;53.540;10.224;2022-12-15T12:38:44;9.03;;;8.10;;
5491;SDS011;2768;53.540;10.224;2022-12-15T12:44:41;11.70;;;9.80;;
5491;SDS011;2768;53.540;10.224;2022-12-15T12:50:38;12.33;;;9.87;;
5491;SDS011;2768;53.540;10.224;2022-12-15T12:56:38;12.53;;;9.33;;
5491;SDS011;2768;53.540;10.224;2022-12-15T13:09:19;12.87;;;9.60;;
5491;SDS011;2768;53.540;10.224;2022-12-15T13:15:17;13.77;;;8.97;;
5491;SDS011;2768;53.540;10.224;2022-12-15T13:27:40;8.87;;;7.60;;
5491;SDS011;2768;53.540;10.224;2022-12-15T13:33:35;11.60;;;7.70;;
5491;SDS011;2768;53.540;10.224;2022-12-15T13:45:49;17.87;;;8.57;;
5491;SDS011;2768;53.540;10.224;2022-12-15T13:51:45;10.20;;;7.20;;
5491;SDS011;2768;53.540;10.224;2022-12-15T13:57:44;9.33;;;7.17;;
5491;SDS011;2768;53.540;10.224;2022-12-15T14:03:54;9.97;;;7.90;;
5491;SDS011;2768;53.540;10.224;2022-12-15T14:09:55;14.10;;;7.53;;
5491;SDS011;2768;53.540;10.224;2022-12-15T14:15:50;9.97;;;7.53;;
5491;SDS011;2768;53.540;10.224;2022-12-15T14:21:49;10.30;;;6.93;;
5491;SDS011;2768;53.540;10.224;2022-12-15T14:27:45;8.40;;;6.83;;
5491;SDS011;2768;53.540;10.224;2022-12-15T14:33:42;10.80;;;7.20;;
5491;SDS011;2768;53.540;10.224;2022-12-15T14:39:41;8.90;;;6.90;;
5491;SDS011;2768;53.540;10.224;2022-12-15T14:45:38;9.13;;;7.47;;
5491;SDS011;2768;53.540;10.224;2022-12-15T14:51:37;11.50;;;7.80;;
5491;SDS011;2768;53.540;10.224;2022-12-15T14:57:37;11.20;;;8.17;;
5491;SDS011;2768;53.540;10.224;2022-12-15T15:03:35;12.67;;;8.60;;
5491;SDS011;2768;53.540;10.224;2022-12-15T15:09:30;12.33;;;7.50;;
5491;SDS011;2768;53.540;10.224;2022-12-15T15:22:26;10.13;;;7.80;;
5491;SDS011;2768;53.540;10.224;2022-12-15T15:28:26;9.40;;;7.00;;
5491;SDS011;2768;53.540;10.224;2022-12-15T15:34:26;12.33;;;8.23;;
5491;SDS011;2768;53.540;10.224;2022-12-15T15:40:21;9.33;;;7.83;;
5491;SDS011;2768;53.540;10.224;2022-12-15T15:46:15;8.23;;;6.60;;
5491;SDS011;2768;53.540;10.224;2022-12-15T15:52:12;9.43;;;7.27;;
5491;SDS011;2768;53.540;10.224;2022-12-15T15:58:10;12.30;;;7.17;;
5491;SDS011;2768;53.540;10.224;2022-12-15T16:04:04;13.97;;;9.33;;
5491;SDS011;2768;53.540;10.224;2022-12-15T16:09:58;15.83;;;7.77;;
5491;SDS011;2768;53.540;10.224;2022-12-15T16:15:53;11.07;;;8.20;;
5491;SDS011;2768;53.540;10.224;2022-12-15T16:21:46;8.77;;;7.87;;
5491;SDS011;2768;53.540;10.224;2022-12-15T16:27:41;10.03;;;8.70;;
5491;SDS011;2768;53.540;10.224;2022-12-15T16:33:36;10.70;;;9.63;;
5491;SDS011;2768;53.540;10.224;2022-12-15T16:39:30;12.17;;;9.60;;
5491;SDS011;2768;53.540;10.224;2022-12-15T16:45:25;12.33;;;9.87;;
5491;SDS011;2768;53.540;10.224;2022-12-15T16:51:25;13.00;;;9.93;;
5491;SDS011;2768;53.540;10.224;2022-12-15T16:57:23;16.37;;;11.10;;
5491;SDS011;2768;53.540;10.224;2022-12-15T17:03:17;12.13;;;9.70;;
5491;SDS011;2768;53.540;10.224;2022-12-15T17:09:16;15.40;;;10.53;;
5491;SDS011;2768;53.540;10.224;2022-12-15T17:15:17;14.70;;;10.70;;
5491;SDS011;2768;53.540;10.224;2022-12-15T17:21:12;13.30;;;10.27;;
5491;SDS011;2768;53.540;10.224;2022-12-15T17:27:11;13.90;;;10.30;;
5491;SDS011;2768;53.540;10.224;2022-12-15T17:33:17;14.43;;;10.60;;
5491;SDS011;2768;53.540;10.224;2022-12-15T17:39:11;16.80;;;11.07;;
5491;SDS011;2768;53.540;10.224;2022-12-15T17:45:13;12.07;;;10.17;;
5491;SDS011;2768;53.540;10.224;2022-12-15T17:51:09;13.70;;;11.17;;
5491;SDS011;2768;53.540;10.224;2022-12-15T17:57:07;13.83;;;10.77;;
5491;SDS011;2768;53.540;10.224;2022-12-15T18:03:04;14.00;;;11.43;;
5491;SDS011;2768;53.540;10.224;2022-12-15T18:08:57;17.13;;;12.13;;
5491;SDS011;2768;53.540;10.224;2022-12-15T18:14:51;14.13;;;11.10;;
5491;SDS011;2768;53.540;10.224;2022-12-15T18:20:48;15.90;;;11.57;;
5491;SDS011;2768;53.540;10.224;2022-12-15T18:26:45;14.20;;;10.77;;
5491;SDS011;2768;53.540;10.224;2022-12-15T18:32:39;15.67;;;11.10;;
5491;SDS011;2768;53.540;10.224;2022-12-15T18:38:34;15.83;;;10.57;;
5491;SDS011;2768;53.540;10.224;2022-12-15T18:44:27;13.57;;;11.10;;
5491;SDS011;2768;53.540;10.224;2022-12-15T18:50:23;15.13;;;11.30;;
5491;SDS011;2768;53.540;10.224;2022-12-15T18:56:18;21.03;;;14.90;;
5491;SDS011;2768;53.540;10.224;2022-12-15T19:02:14;17.43;;;13.70;;
5491;SDS011;2768;53.540;10.224;2022-12-15T19:08:09;18.33;;;13.60;;
5491;SDS011;2768;53.540;10.224;2022-12-15T19:14:09;14.80;;;11.50;;
5491;SDS011;2768;53.540;10.224;2022-12-15T19:20:25;16.80;;;14.20;;
5491;SDS011;2768;53.540;10.224;2022-12-15T19:26:36;15.30;;;12.93;;
5491;SDS011;2768;53.540;10.224;2022-12-15T19:32:32;21.90;;;14.83;;
5491;SDS011;2768;53.540;10.224;2022-12-15T19:38:26;29.50;;;19.30;;
5491;SDS011;2768;53.540;10.224;2022-12-15T19:44:22;19.90;;;15.87;;
5491;SDS011;2768;53.540;10.224;2022-12-15T19:50:19;21.87;;;15.63;;
5491;SDS011;2768;53.540;10.224;2022-12-15T19:56:15;17.20;;;13.73;;
5491;SDS011;2768;53.540;10.224;2022-12-15T20:02:13;19.93;;;15.17;;
5491;SDS011;2768;53.540;10.224;2022-12-15T20:08:10;21.40;;;15.97;;
5491;SDS011;2768;53.540;10.224;2022-12-15T20:14:10;20.93;;;16.33;;
5491;SDS011;2768;53.540;10.224;2022-12-15T20:20:04;17.63;;;14.00;;
5491;SDS011;2768;53.540;10.224;2022-12-15T20:26:00;19.60;;;14.23;;
5491;SDS011;2768;53.540;10.224;2022-12-15T20:31:53;14.60;;;12.17;;
5491;SDS011;2768;53.540;10.224;2022-12-15T20:37:49;30.57;;;21.80;;
5491;SDS011;2768;53.540;10.224;2022-12-15T20:43:44;26.37;;;17.70;;
5491;SDS011;2768;53.540;10.224;2022-12-15T20:49:39;19.70;;;13.90;;
5491;SDS011;2768;53.540;10.224;2022-12-15T20:55:32;21.73;;;15.17;;
5491;SDS011;2768;53.540;10.224;2022-12-15T21:01:27;19.90;;;16.27;;
5491;SDS011;2768;53.540;10.224;2022-12-15T21:07:23;18.20;;;14.10;;
5491;SDS011;2768;53.540;10.224;2022-12-15T21:13:18;13.77;;;11.40;;
5491;SDS011;2768;53.540;10.224;2022-12-15T21:19:15;18.00;;;13.70;;
5491;SDS011;2768;53.540;10.224;2022-12-15T21:25:24;20.23;;;14.47;;
5491;SDS011;2768;53.540;10.224;2022-12-15T21:31:19;16.83;;;14.70;;
5491;SDS011;2768;53.540;10.224;2022-12-15T21:37:22;18.93;;;13.70;;
5491;SDS011;2768;53.540;10.224;2022-12-15T21:43:18;19.37;;;14.63;;
5491;SDS011;2768;53.540;10.224;2022-12-15T21:49:16;15.73;;;13.13;;
5491;SDS011;2768;53.540;10.224;2022-12-15T21:55:14;18.00;;;14.30;;
5491;SDS011;2768;53.540;10.224;2022-12-15T22:01:10;15.70;;;14.07;;
5491;SDS011;2768;53.540;10.224;2022-12-15T22:07:08;14.70;;;12.97;;
5491;SDS011;2768;53.540;10.224;2022-12-15T22:13:08;17.40;;;13.90;;
5491;SDS011;2768;53.540;10.224;2022-12-15T22:19:04;17.60;;;14.23;;
5491;SDS011;2768;53.540;10.224;2022-12-15T22:25:03;16.50;;;13.37;;
5491;SDS011;2768;53.540;10.224;2022-12-15T22:30:59;17.80;;;15.03;;
5491;SDS011;2768;53.540;10.224;2022-12-15T22:36:55;18.00;;;14.40;;
5491;SDS011;2768;53.540;10.224;2022-12-15T22:42:49;17.70;;;14.80;;
5491;SDS011;2768;53.540;10.224;2022-12-15T22:48:46;18.17;;;14.90;;
5491;SDS011;2768;53.540;10.224;2022-12-15T22:54:40;20.20;;;14.37;;
5491;SDS011;2768;53.540;10.224;2022-12-15T23:00:36;18.57;;;14.20;;
5491;SDS011;2768;53.540;10.224;2022-12-15T23:06:31;17.37;;;12.93;;
5491;SDS011;2768;53.540;10.224;2022-12-15T23:12:24;18.70;;;13.93;;
5491;SDS011;2768;53.540;10.224;2022-12-15T23:18:17;17.87;;;14.83;;
5491;SDS011;2768;53.540;10.224;2022-12-15T23:24:12;22.03;;;17.07;;
5491;SDS011;2768;53.540;10.224;2022-12-15T23:30:06;34.90;;;20.13;;
5491;SDS011;2768;53.540;10.224;2022-12-15T23:36:00;29.33;;;19.07;;
5491;SDS011;2768;53.540;10.224;2022-12-15T23:41:56;27.00;;;16.60;;
5491;SDS011;2768;53.540;10.224;2022-12-15T23:47:49;21.23;;;15.53;;
5491;SDS011;2768;53.540;10.224;2022-12-15T23:53:45;20.83;;;15.40;;
5491;SDS011;2768;53.540;10.224;2022-12-15T23:59:40;32.07;;;21.10;;
